Overview Statistics Trail Chart Weather Telemetry Raw packets
 

This is the latest recevied packets stored in our database for station/object OE3KHA-12. If no packets are shown the sender has not sent any packets the latest 24 hours.

If you compare the raw packets with similar data from other websites it may differ (especially the path), the reason is that we are not collecting packets from the same APRS-IS servers. Each APRS-IS server performes duplicate filtering, and which packet that is considered to be a duplicate may differ depending on which APRS-IS server you receive your data from.

<< 1 2 3 4 >>

1788595156: OE3KHA-12>APRSGW,TCPIP*,qAR,OE3KHA-12:T#080,990.0,24.8,49.8,1021.5,0.0,00000000

1788595134: OE3KHA-12>APRSGW,TCPIP*,qAR,OE3KHA-12:T#079,990.0,24.8,49.8,1021.5,0.0,00000000

1788595134: OE3KHA-12>APRSGW,TCPIP*,qAR,OE3KHA-12:!4820.27N/01624.25E#Arbeitsplatz/B=095/A=000896

1788593350: OE3KHA-12>APRSGW,TCPIP*,qAR,OE3KHA-12:T#078,990.2,23.9,51.5,1021.7,0.0,00000000

1788593328: OE3KHA-12>APRSGW,TCPIP*,qAR,OE3KHA-12:T#077,990.2,23.9,51.5,1021.7,0.0,00000000

1788593328: OE3KHA-12>APRSGW,TCPIP*,qAR,OE3KHA-12:!4820.27N/01624.25E#Arbeitsplatz/B=094/A=000896

1788591544: OE3KHA-12>APRSGW,TCPIP*,qAR,OE3KHA-12:T#076,989.8,23.9,49.9,1021.4,0.0,00000000

1788591522: OE3KHA-12>APRSGW,TCPIP*,qAR,OE3KHA-12:T#075,989.8,23.9,49.9,1021.4,0.0,00000000

1788591522: OE3KHA-12>APRSGW,TCPIP*,qAR,OE3KHA-12:!4820.27N/01624.25E#Arbeitsplatz/B=095/A=000896

1788589739: OE3KHA-12>APRSGW,TCPIP*,qAR,OE3KHA-12:T#074,989.8,24.4,43.9,1021.3,0.0,00000000

1788589717: OE3KHA-12>APRSGW,TCPIP*,qAR,OE3KHA-12:T#073,989.8,24.4,43.9,1021.3,0.0,00000000

1788589717: OE3KHA-12>APRSGW,TCPIP*,qAR,OE3KHA-12:!4820.27N/01624.25E#Arbeitsplatz/B=095/A=000896

1788587931: OE3KHA-12>APRSGW,TCPIP*,qAR,OE3KHA-12:T#072,989.1,24.8,42.4,1020.5,0.0,00000000

1788587909: OE3KHA-12>APRSGW,TCPIP*,qAR,OE3KHA-12::OE3KHA-12:PARM.Press,Temp.in,Hum,QNH,Temp.out,track,-,-,-,-,-,-,-

1788587909: OE3KHA-12>APRSGW,TCPIP*,qAR,OE3KHA-12::OE3KHA-12:EQNS.0,1,0,0,1,0,0,1,0,0,1,0,0,1,0

1788587909: OE3KHA-12>APRSGW,TCPIP*,qAR,OE3KHA-12:T#071,989.1,24.8,42.4,1020.5,0.0,00000000

1788587909: OE3KHA-12>APRSGW,TCPIP*,qAR,OE3KHA-12::OE3KHA-12:UNIT.hPa,C deg,%,hPa,C deg,Y/N,O/N,O/N,O/N,O/N,O/N,O/N,O/N

1788587909: OE3KHA-12>APRSGW,TCPIP*,qAR,OE3KHA-12:!4820.27N/01624.25E#Arbeitsplatz/B=096/A=000896

1788586122: OE3KHA-12>APRSGW,TCPIP*,qAR,OE3KHA-12:T#070,988.0,25.5,40.9,1019.3,0.0,00000000

1788586100: OE3KHA-12>APRSGW,TCPIP*,qAR,OE3KHA-12:T#069,988.0,25.5,40.9,1019.3,0.0,00000000

1788586100: OE3KHA-12>APRSGW,TCPIP*,qAR,OE3KHA-12:!4820.27N/01624.25E#Arbeitsplatz/B=095/A=000896

1788584316: OE3KHA-12>APRSGW,TCPIP*,qAR,OE3KHA-12:T#068,987.0,25.6,44.8,1018.3,0.0,00000000

1788584293: OE3KHA-12>APRSGW,TCPIP*,qAR,OE3KHA-12:T#067,987.0,25.6,44.8,1018.3,0.0,00000000

1788584293: OE3KHA-12>APRSGW,TCPIP*,qAR,OE3KHA-12:!4820.27N/01624.25E#Arbeitsplatz/B=096/A=000896

1788582510: OE3KHA-12>APRSGW,TCPIP*,qAR,OE3KHA-12:T#066,987.3,25.6,46.9,1018.5,0.0,00000000